NEODyS-2

Near Earth Objects - Dynamic Site
NEODyS ∴ Observatories ∴ Site 691 ∴ Obs & residuals
Contact »
691  ▹ 
OBSERVATIONS AND RESIDUALS

691-Steward Observatory, Kitt Peak-Spacewatch

Detections | Residuals | Detections & Residuals

[1-200] [201-400] [401-600] [601-800] [801-1000] [1001-1200] [1201-1400] [1401-1600] [1601-1800] [1801-2000] [2001-2200] [2201-2400] [2401-2600] [2601-2800] [2801-3000] [3001-3200] [3201-3400] [3401-3600] [3601-3800] [3801-4000] [4001-4200] [4201-4400] [4401-4600] [4601-4800] [4801-5000] [5001-5200] [5201-5400] [5401-5600] [5601-5800] [5801-6000] [6001-6200] [6201-6400] [6401-6600] [6601-6800] [6801-7000] [7001-7200] [7201-7400] [7401-7600] [7601-7800] [7801-8000] [8001-8200] [8201-8400] [8401-8600] [8601-8800] [8801-9000] [9001-9200] [9201-9400] [9401-9600] [9601-9800] [9801-10000] [10001-10200] [10201-10400] [10401-10600] [10601-10800] [10801-11000] [11001-11200] [11201-11400] [11401-11600] [11601-11800] [11801-12000] [12001-12200] [12201-12400] [12401-12600] [12601-12800] [12801-13000] [13001-13200] [13201-13400] [13401-13600] [13601-13800] [13801-14000] [14001-14200] [14201-14400] [14401-14600] [14601-14800] [14801-15000] [15001-15200] [15201-15400] [15401-15600] [15601-15800] [15801-16000] [16001-16200] [16201-16400] [16401-16600] [16601-16800] [16801-17000] [17001-17200] [17201-17400] [17401-17600] [17601-17800] [17801-18000] [18001-18200] [18201-18400] [18401-18600] [18601-18800] [18801-19000] [19001-19200] [19201-19400] [19401-19600] [19601-19800] [19801-20000] [20001-20200] [20201-20400] [20401-20600] [20601-20800] [20801-21000] [21001-21200] [21201-21400] [21401-21600] [21601-21800] [21801-22000] [22001-22200] [22201-22400] [22401-22600] [22601-22800] [22801-23000] [23001-23200] [23201-23400] [23401-23600] [23601-23800] [23801-24000] [24001-24200] [24201-24400] [24401-24600] [24601-24800] [24801-25000] [25001-25200] [25201-25400] [25401-25600] [25601-25800] [25801-26000] [26001-26200] [26201-26400] [26401-26600] [26601-26800] [26801-27000] [27001-27200] [27201-27400] [27401-27600] [27601-27800] [27801-28000] [28001-28200] [28201-28400] [28401-28600] [28601-28800] [28801-29000] [29001-29200] [29201-29400] [29401-29600] [29601-29800] [29801-30000] [30001-30200] [30201-30400] [30401-30600] [30601-30800] [30801-31000] [31001-31200] [31201-31400] [31401-31600] [31601-31800] [31801-32000] [32001-32200] [32201-32400] [32401-32600] [32601-32800] [32801-33000] [33001-33200] [33201-33400] [33401-33600] [33601-33800] [33801-34000] [34001-34200] [34201-34400] [34401-34600] [34601-34800] [34801-35000] [35001-35200] [35201-35400] [35401-35600] [35601-35800] [35801-36000] [36001-36200] [36201-36400] [36401-36600] [36601-36800] [36801-37000] [37001-37200] [37201-37400] [37401-37600] [37601-37800] [37801-38000] [38001-38200] [38201-38400] [38401-38600] [38601-38800] [38801-39000] [39001-39200] [39201-39400] [39401-39600] [39601-39800] [39801-40000] [40001-40200] [40201-40400] [40401-40600] [40601-40800] [40801-41000] [41001-41200] [41201-41400] [41401-41600] [41601-41800] [41801-42000] [42001-42200] [42201-42400] [42401-42600] [42601-42800] [42801-43000] [43001-43200] [43201-43400] [43401-43600] [43601-43800] [43801-44000] [44001-44200] [44201-44400] [44401-44600] [44601-44800] [44801-45000] [45001-45200] [45201-45400] [45401-45600] [45601-45800] [45801-46000] [46001-46200] [46201-46400] [46401-46600] [46601-46800] [46801-47000] [47001-47200] [47201-47400] [47401-47600] [47601-47800] [47801-48000] [48001-48200] [48201-48400] [48401-48600] [48601-48800] [48801-49000] [49001-49200] [49201-49400] [49401-49600] [49601-49800] [49801-50000] [50001-50200] [50201-50388]

Designation T Tech N Date Right Ascension Declination Apparent Magnitude Star Catalog Site code χ Used A Used M
yr-mo-day precision hr:min:sec precision rms F bias residual deg min sec precision rms F bias residual mag/col rms residual
2019AW4 O C 2019-01-31.39186 1.000E-05 10:12:53.530 1.500E-01 0.500 F 0.184 0.020 -13° 15' 06.40" 1.000E-01 0.500 F 0.010 -0.171 19.8 V 0.70 0.14 o 691 0.35 Yes Yes
2019AM10 O C K 2019-01-31.39332 1.000E-05 09:31:34.830 1.500E-01 0.500 F 0.139 0.059 +05° 04' 57.90" 1.000E-01 0.500 F 0.202 -0.069 o 691 0.19 Yes No
2019AW4 O C 2019-01-31.40008 1.000E-05 10:12:55.070 1.500E-01 0.500 F 0.184 -0.081 -13° 15' 11.50" 1.000E-01 0.500 F 0.010 -0.300 19.6 V 0.70 -0.06 o 691 0.63 Yes Yes
2019AM10 O C K 2019-01-31.40153 1.000E-05 09:31:32.940 1.500E-01 0.500 F 0.139 -0.392 +05° 04' 11.70" 1.000E-01 0.500 F 0.202 -0.029 o 691 0.80 Yes No
2019BU1 O C K 2019-01-31.40976 1.000E-05 08:56:53.020 1.500E-01 0.500 F 0.103 0.097 +29° 30' 55.20" 1.000E-01 0.500 F 0.336 0.314 20.9 R 0.70 -0.12 o 691 0.66 Yes Yes
2019BU1 O C K 2019-01-31.41829 1.000E-05 08:56:54.150 1.500E-01 0.500 F 0.103 -0.063 +29° 30' 48.90" 1.000E-01 0.500 F 0.336 -0.263 21.3 R 0.70 0.28 o 691 0.54 Yes Yes
2019BU1 O C K 2019-01-31.42682 1.000E-05 08:56:55.310 1.500E-01 0.500 F 0.103 0.037 +29° 30' 43.40" 1.000E-01 0.500 F 0.336 0.067 o 691 0.15 Yes No
2019AH13 O C K 2019-01-31.47228 1.000E-05 10:52:18.820 1.500E-01 0.500 F 0.051 -0.590 +16° 29' 23.20" 1.000E-01 0.500 F 0.169 0.448 21.0 R 0.70 0.47 o 691 1.54 Yes Yes
2019BF O C K 2019-01-31.47692 1.000E-05 09:54:50.800 1.500E-01 0.500 F 0.149 0.098 -00° 03' 19.50" 1.000E-01 0.500 F 0.166 0.128 21.1 R 0.70 0.54 o 691 0.32 Yes Yes
2019AH13 O C K 2019-01-31.48748 1.000E-05 10:52:21.710 1.500E-01 0.500 F 0.051 -0.094 +16° 30' 20.00" 1.000E-01 0.500 F 0.169 0.625 20.7 R 0.70 0.17 o 691 1.33 Yes Yes
2019BF O C K 2019-01-31.49198 1.000E-05 09:54:53.600 1.500E-01 0.500 F 0.149 0.350 -00° 03' 36.20" 1.000E-01 0.500 F 0.166 0.166 20.6 R 0.70 0.05 o 691 0.78 Yes Yes
2019AH13 O C K 2019-01-31.50253 1.000E-05 10:52:24.620 1.500E-01 0.500 F 0.051 0.425 +16° 31' 15.50" 1.000E-01 0.500 F 0.169 0.407 20.1 R 0.70 -0.43 o 691 1.23 Yes Yes
2019BF O C K 2019-01-31.50703 1.000E-05 09:54:56.380 1.500E-01 0.500 F 0.149 0.047 -00° 03' 53.10" 1.000E-01 0.500 F 0.166 0.001 20.8 R 0.70 0.25 o 691 0.10 Yes Yes
2019BC1 O C K 2019-01-31.51629 1.000E-05 14:00:52.730 1.500E-01 0.500 F 0.206 -0.049 +18° 44' 10.40" 1.000E-01 0.500 F 0.364 -0.063 19.5 R 0.70 -0.40 o 691 0.16 Yes Yes
2019BC1 O C K 2019-01-31.52096 1.000E-05 14:00:52.760 1.500E-01 0.500 F 0.206 0.026 +18° 44' 23.30" 1.000E-01 0.500 F 0.364 0.066 19.7 R 0.70 -0.20 o 691 0.14 Yes Yes
2019BC1 O C K 2019-01-31.52562 1.000E-05 14:00:52.770 1.500E-01 0.500 F 0.206 -0.181 +18° 44' 36.10" 1.000E-01 0.500 F 0.364 0.130 19.6 R 0.70 -0.30 o 691 0.45 Yes Yes
2018XH O C K 2019-01-31.54745 1.000E-05 14:31:40.690 1.500E-01 0.500 F 0.211 -0.108 -20° 40' 02.00" 1.000E-01 0.500 F 0.067 0.032 o 691 0.23 Yes No
2018XH O C K 2019-01-31.55241 1.000E-05 14:31:41.940 1.500E-01 0.500 F 0.211 -0.017 -20° 40' 09.40" 1.000E-01 0.500 F 0.067 0.115 20.6 R 0.70 0.36 o 691 0.23 Yes Yes
2018XH O C K 2019-01-31.55737 1.000E-05 14:31:43.200 1.500E-01 0.500 F 0.211 0.217 -20° 40' 16.80" 1.000E-01 0.500 F 0.067 0.178 20.3 R 0.70 0.06 o 691 0.56 Yes Yes
2005BG14 O C K 2019-02-01.09800 1.000E-05 01:09:31.320 1.500E-01 0.500 F -0.301 -0.070 +16° 34' 39.60" 1.000E-01 0.500 F 0.327 -0.109 20.2 R 0.70 0.94 o 691 0.27 Yes Yes
2005BG14 O C K 2019-02-01.10560 1.000E-05 01:09:35.120 1.500E-01 0.500 F -0.301 -0.165 +16° 35' 29.20" 1.000E-01 0.500 F 0.327 0.011 20.3 R 0.70 1.04 o 691 0.33 Yes Yes
2018YE2 O C K 2019-02-01.11379 1.000E-05 02:08:45.440 1.500E-01 0.500 F -0.097 -0.168 +26° 05' 02.00" 1.000E-01 0.500 F 0.290 0.299 21.3 R 0.70 0.75 o 691 0.70 Yes Yes
2006OT9 O C 2019-02-01.11782 1.000E-05 01:07:56.590 1.500E-01 0.500 F -0.182 -0.274 +21° 08' 46.20" 1.000E-01 0.500 F 0.346 0.449 20.9 V 0.70 0.43 o 691 1.07 Yes Yes
2018YE2 O C K 2019-02-01.12046 1.000E-05 02:08:46.030 1.500E-01 0.500 F -0.133 0.370 +26° 05' 26.00" 1.000E-01 0.500 F 0.308 -0.607 o 691 1.45 Yes No
2006OT9 O C 2019-02-01.12442 1.000E-05 01:07:58.240 1.500E-01 0.500 F -0.182 0.124 +21° 08' 35.60" 1.000E-01 0.500 F 0.346 -0.182 20.4 V 0.70 -0.07 o 691 0.45 Yes Yes
2018YE2 O C K 2019-02-01.12707 1.000E-05 02:08:46.580 1.500E-01 0.500 F -0.133 0.385 +26° 05' 51.90" 1.000E-01 0.500 F 0.308 0.639 21.2 R 0.70 0.65 o 691 1.54 Yes Yes
2006OT9 O C 2019-02-01.13103 1.000E-05 01:07:59.820 1.500E-01 0.500 F -0.182 -0.523 +21° 08' 25.80" 1.000E-01 0.500 F 0.346 0.015 20.7 V 0.70 0.23 o 691 1.05 Yes Yes
2018XG5 O C H 2019-02-01.13709 1.000E-05 03:48:56.940 1.500E-01 0.500 F -0.280 0.123 -07° 58' 57.80" 1.000E-01 0.500 F 0.152 -0.065 21.2 R 0.70 0.29 o 691 0.28 Yes Yes
2019BR1 O C K 2019-02-01.14009 1.000E-05 05:32:35.720 1.500E-01 0.500 F -0.051 0.011 -18° 08' 23.90" 1.000E-01 0.500 F -0.076 0.258 20.7 R 0.70 0.42 o 691 0.52 Yes Yes
2018XG5 O C H 2019-02-01.14461 1.000E-05 03:48:56.880 1.500E-01 0.500 F -0.280 0.095 -07° 58' 58.60" 1.000E-01 0.500 F 0.152 0.022 21.2 R 0.70 0.29 o 691 0.19 Yes Yes
2019BR1 O C K 2019-02-01.14745 1.000E-05 05:32:34.550 1.500E-01 0.500 F -0.051 0.019 -18° 08' 32.60" 1.000E-01 0.500 F -0.076 -0.188 20.7 R 0.70 0.42 o 691 0.38 Yes Yes
2018XG5 O C H 2019-02-01.15198 1.000E-05 03:48:56.820 1.500E-01 0.500 F -0.280 0.040 -07° 58' 59.60" 1.000E-01 0.500 F 0.152 -0.113 21.4 R 0.70 0.49 o 691 0.24 Yes Yes
2019BR1 O C K 2019-02-01.15484 1.000E-05 05:32:33.370 1.500E-01 0.500 F -0.051 -0.043 -18° 08' 40.70" 1.000E-01 0.500 F -0.076 -0.015 20.9 R 0.70 0.62 o 691 0.09 Yes Yes
2015XA352 O C K 2019-02-01.17897 1.000E-05 07:43:37.700 1.500E-01 0.500 F -0.030 -0.267 +07° 36' 03.30" 1.000E-01 0.500 F 0.137 -1.496 21.0 R 0.70 -0.15 o 691 3.12 Yes Yes
2019BH4 O C K 2019-02-01.18409 1.000E-05 07:44:26.400 1.500E-01 0.500 F 0.070 0.101 +02° 44' 38.80" 1.000E-01 0.500 F 0.091 0.119 21.4 R 0.70 0.44 o 691 0.38 Yes Yes
2019AQ4 O C H 2019-02-01.18944 1.000E-05 08:04:53.350 1.500E-01 0.500 F 0.124 0.052 +04° 07' 17.50" 1.000E-01 0.500 F 0.053 -0.060 20.2 R 0.70 0.00 o 691 0.16 Yes Yes
2015XA352 O C K 2019-02-01.19105 1.000E-05 07:43:36.120 1.500E-01 0.500 F -0.030 -0.251 +07° 36' 07.20" 1.000E-01 0.500 F 0.137 -0.084 21.6 R 0.70 0.45 o 691 0.54 Yes Yes
2019BH4 O C K 2019-02-01.19617 1.000E-05 07:44:24.250 1.500E-01 0.500 F 0.070 0.040 +02° 45' 17.50" 1.000E-01 0.500 F 0.091 -0.034 21.3 R 0.70 0.34 o 691 0.13 Yes Yes
2015XA352 O C K 2019-02-01.20312 1.000E-05 07:43:34.560 1.500E-01 0.500 F -0.030 0.089 +07° 36' 09.80" 1.000E-01 0.500 F 0.137 0.042 21.1 R 0.70 -0.05 o 691 0.20 Yes Yes
2019BH4 O C K 2019-02-01.20825 1.000E-05 07:44:22.100 1.500E-01 0.500 F 0.070 -0.012 +02° 45' 56.30" 1.000E-01 0.500 F 0.091 -0.055 21.3 R 0.70 0.34 o 691 0.14 Yes Yes
2019AQ4 O C H 2019-02-01.21359 1.000E-05 08:04:48.150 1.500E-01 0.500 F 0.124 -0.241 +04° 06' 55.90" 1.000E-01 0.500 F 0.053 -0.115 19.9 R 0.70 -0.30 o 691 0.54 Yes Yes
2019AF3 O C K 2019-02-01.21489 1.000E-05 07:55:51.390 1.500E-01 0.500 F -0.072 0.011 +09° 02' 49.40" 1.000E-01 0.500 F -0.082 -0.088 20.0 R 0.70 0.46 o 691 0.18 Yes Yes
2019BK O C 2019-02-01.21711 1.000E-05 08:36:38.550 1.500E-01 0.500 F 0.074 -0.210 +02° 02' 59.30" 1.000E-01 0.500 F 0.234 -0.035 19.3 V 0.70 0.24 o 691 0.43 Yes Yes
2019AF3 O C K 2019-02-01.22064 1.000E-05 07:55:51.230 1.500E-01 0.500 F -0.072 0.076 +09° 02' 14.80" 1.000E-01 0.500 F -0.082 0.133 20.3 R 0.70 0.76 o 691 0.31 Yes Yes
2019BK O C 2019-02-01.22288 1.000E-05 08:36:37.550 1.500E-01 0.500 F 0.074 -0.225 +02° 03' 14.20" 1.000E-01 0.500 F 0.234 0.115 19.3 V 0.70 0.24 o 691 0.51 Yes Yes
2019AF3 O C K 2019-02-01.22640 1.000E-05 07:55:51.050 1.500E-01 0.500 F -0.072 -0.123 +09° 01' 39.90" 1.000E-01 0.500 F -0.082 0.121 20.0 R 0.70 0.46 o 691 0.35 Yes Yes
2019BK O C 2019-02-01.22862 1.000E-05 08:36:36.540 1.500E-01 0.500 F 0.074 -0.457 +02° 03' 28.70" 1.000E-01 0.500 F 0.234 -0.050 19.3 V 0.70 0.24 o 691 0.92 Yes Yes
2016BT39 O C K 2019-02-01.23244 1.000E-05 09:37:37.910 1.500E-01 0.500 F 0.083 -0.088 +02° 45' 16.10" 1.000E-01 0.500 F 0.188 0.309 21.2 R 0.70 0.00 o 691 0.65 Yes Yes
2016BT39 O C K 2019-02-01.24003 1.000E-05 09:37:37.210 1.500E-01 0.500 F 0.083 0.304 +02° 45' 21.70" 1.000E-01 0.500 F 0.188 -0.210 20.9 R 0.70 -0.30 o 691 0.75 Yes Yes
2016BT39 O C K 2019-02-01.24763 1.000E-05 09:37:36.470 1.500E-01 0.500 F 0.083 0.122 +02° 45' 27.80" 1.000E-01 0.500 F 0.188 -0.238 o 691 0.54 Yes No
2008CR1 O C 2019-02-02.27134 1.000E-05 08:57:35.170 1.500E-01 0.500 F 0.104 -0.455 +28° 39' 29.30" 1.000E-01 0.500 F 0.320 0.108 20.4 V 0.70 0.13 o 691 0.94 Yes Yes
2008CR1 O C 2019-02-02.27802 1.000E-05 08:57:33.200 1.500E-01 0.500 F 0.104 -0.767 +28° 39' 21.50" 1.000E-01 0.500 F 0.320 0.051 20.2 V 0.70 -0.07 o 691 1.55 Yes Yes
2008CR1 O C 2019-02-02.28469 1.000E-05 08:57:31.310 1.500E-01 0.500 F 0.104 -0.059 +28° 39' 14.00" 1.000E-01 0.500 F 0.320 0.294 20.6 V 0.70 0.33 o 691 0.61 Yes Yes
2019CZ4 O C K 2019-03-02.11937 1.000E-05 09:21:21.720 1.500E-01 0.500 F 0.104 0.544 +22° 36' 13.30" 1.000E-01 0.500 F 0.315 0.379 18.6 R 0.70 -0.67 o 691 1.34 Yes Yes
2019CZ4 O C K 2019-03-02.12281 1.000E-05 09:21:20.450 1.500E-01 0.500 F 0.104 -0.609 +22° 36' 05.40" 1.000E-01 0.500 F 0.315 0.161 18.2 R 0.70 -1.07 o 691 1.27 Yes Yes
2019CZ4 O C K 2019-03-02.12625 1.000E-05 09:21:19.270 1.500E-01 0.500 F 0.104 -0.499 +22° 35' 57.40" 1.000E-01 0.500 F 0.315 -0.149 19.0 R 0.70 -0.27 o 691 1.06 Yes Yes
2019BG2 O C K 2019-03-02.19755 1.000E-05 08:18:55.770 1.500E-01 0.500 F 0.013 0.823 +18° 30' 12.50" 1.000E-01 0.500 F 0.288 -0.039 21.1 R 0.70 -0.30 o 691 1.71 Yes Yes
2019BG2 O C K 2019-03-02.20953 1.000E-05 08:18:55.310 1.500E-01 0.500 F 0.013 -0.170 +18° 29' 52.40" 1.000E-01 0.500 F 0.288 -0.088 21.0 R 0.70 -0.40 o 691 0.39 Yes Yes
2019DP O C K 2019-03-03.13575 1.000E-05 09:37:26.220 1.500E-01 0.500 F 0.114 0.191 -13° 33' 56.80" 1.000E-01 0.500 F 0.127 0.194 o 691 0.55 Yes No
2019DP O C K 2019-03-03.13853 1.000E-05 09:37:25.540 1.500E-01 0.500 F 0.114 -1.106 -13° 34' 10.40" 1.000E-01 0.500 F 0.127 -0.107 o 691 2.22 Yes No
2019DP O C K 2019-03-03.14131 1.000E-05 09:37:25.010 1.500E-01 0.500 F 0.114 -0.179 -13° 34' 24.00" 1.000E-01 0.500 F 0.127 -0.429 19.0 R 0.70 0.23 o 691 0.93 Yes Yes
2019CL2 O C 2019-03-03.14767 1.000E-05 10:28:48.630 1.500E-01 0.500 F 0.004 0.139 +31° 28' 04.90" 1.000E-01 0.500 F 0.375 -0.126 18.8 R 0.70 0.27 o 691 0.38 Yes Yes
2019CL2 O C 2019-03-03.15261 1.000E-05 10:28:48.560 1.500E-01 0.500 F 0.004 -0.008 +31° 28' 30.00" 1.000E-01 0.500 F 0.375 -0.199 19.0 R 0.70 0.47 o 691 0.40 Yes Yes
2019CL2 O C 2019-03-03.16085 1.000E-05 10:28:48.430 1.500E-01 0.500 F 0.004 -0.246 +31° 29' 12.10" 1.000E-01 0.500 F 0.375 -0.050 18.8 R 0.70 0.28 o 691 0.51 Yes Yes
2019CE5 O C 2019-03-03.16421 1.000E-05 09:11:06.520 1.500E-01 0.500 F 0.057 -0.504 +22° 05' 09.30" 1.000E-01 0.500 F 0.304 -0.341 18.6 R 0.70 0.13 o 691 1.23 Yes Yes
2019CE5 O C 2019-03-03.16780 1.000E-05 09:11:06.850 1.500E-01 0.500 F 0.057 0.078 +22° 04' 43.30" 1.000E-01 0.500 F 0.304 0.245 19.1 R 0.70 0.63 o 691 0.52 Yes Yes
2019CE5 O C 2019-03-03.17019 1.000E-05 09:11:07.040 1.500E-01 0.500 F 0.057 0.068 +22° 04' 25.70" 1.000E-01 0.500 F 0.304 0.352 19.0 R 0.70 0.53 o 691 0.73 Yes Yes
2001SW169 O C 2019-03-03.17429 1.000E-05 11:09:00.070 1.500E-01 0.500 F 0.086 -0.107 +12° 48' 38.00" 1.000E-01 0.500 F 0.171 0.076 17.9 V 0.70 0.34 o 691 0.26 Yes Yes
2019CR1 O C K 2019-03-03.17429 1.000E-05 11:07:29.120 1.500E-01 0.500 F 0.086 -0.083 +12° 40' 35.50" 1.000E-01 0.500 F 0.171 -0.662 20.8 R 0.70 -0.45 o 691 1.41 Yes Yes
2001SW169 O C 2019-03-03.18716 1.000E-05 11:08:58.430 1.500E-01 0.500 F 0.086 -0.187 +12° 48' 40.90" 1.000E-01 0.500 F 0.171 0.011 17.9 V 0.70 0.34 o 691 0.37 Yes Yes
2019CR1 O C K 2019-03-03.18716 1.000E-05 11:07:27.820 1.500E-01 0.500 F 0.086 -0.447 +12° 40' 44.70" 1.000E-01 0.500 F 0.171 0.744 20.8 R 0.70 -0.45 o 691 1.83 Yes Yes
2001SW169 O C 2019-03-03.20003 1.000E-05 11:08:56.790 1.500E-01 0.500 F 0.086 -0.136 +12° 48' 43.90" 1.000E-01 0.500 F 0.171 0.071 17.9 V 0.70 0.34 o 691 0.31 Yes Yes
2019CR1 O C K 2019-03-03.20003 1.000E-05 11:07:26.540 1.500E-01 0.500 F 0.086 -0.373 +12° 40' 50.80" 1.000E-01 0.500 F 0.171 -0.915 21.0 R 0.70 -0.25 o 691 2.08 Yes Yes
2019CM4 O C 2019-03-03.22872 1.000E-05 12:44:54.000 1.500E-01 0.500 F 0.197 -0.469 +15° 33' 48.10" 1.000E-01 0.500 F 0.238 0.282 18.0 R 0.70 -0.13 o 691 1.10 Yes Yes
2019CM4 O C 2019-03-03.23307 1.000E-05 12:44:56.990 1.500E-01 0.500 F 0.197 0.673 +15° 33' 30.90" 1.000E-01 0.500 F 0.238 0.173 17.9 R 0.70 -0.23 o 691 1.40 Yes Yes
2019CM4 O C 2019-03-03.23744 1.000E-05 12:44:59.890 1.500E-01 0.500 F 0.197 0.360 +15° 33' 13.70" 1.000E-01 0.500 F 0.238 0.170 18.2 R 0.70 0.07 o 691 0.80 Yes Yes
2019CT2 O C K 2019-03-03.24201 1.000E-05 12:03:04.140 1.500E-01 0.500 F 0.222 -0.738 +04° 53' 29.90" 1.000E-01 0.500 F 0.145 0.393 21.7 R 0.70 0.59 o 691 1.82 Yes Yes
2019CT2 O C K 2019-03-03.25656 1.000E-05 12:03:03.780 1.500E-01 0.500 F 0.222 -0.102 +04° 53' 33.60" 1.000E-01 0.500 F 0.145 -0.245 21.7 R 0.70 0.59 o 691 0.56 Yes Yes
2019CT2 O C K 2019-03-03.27111 1.000E-05 12:03:03.370 1.500E-01 0.500 F 0.222 -0.041 +04° 53' 38.20" 1.000E-01 0.500 F 0.145 0.032 22.1 R 0.70 0.99 o 691 0.11 Yes Yes
2012UO138 O C K 2019-03-03.28625 1.000E-05 12:10:47.900 1.500E-01 0.500 F 0.229 -0.724 -10° 59' 21.00" 1.000E-01 0.500 F -0.065 -0.242 20.2 R 0.70 -0.37 o 691 1.56 Yes Yes
2012UO138 O C K 2019-03-03.29300 1.000E-05 12:10:47.330 1.500E-01 0.500 F 0.229 0.762 -10° 59' 09.60" 1.000E-01 0.500 F -0.065 -0.205 20.3 R 0.70 -0.27 o 691 1.58 Yes Yes
2012UO138 O C K 2019-03-03.29974 1.000E-05 12:10:46.540 1.500E-01 0.500 F 0.229 -1.000 -10° 58' 58.90" 1.000E-01 0.500 F -0.065 -0.854 20.2 R 0.70 -0.37 o 691 2.67 Yes Yes
2008GJ O C K 2019-03-03.30880 1.000E-05 13:04:59.140 1.500E-01 0.500 F 0.228 -0.295 -19° 48' 19.20" 1.000E-01 0.500 F -0.143 -0.049 21.2 R 0.70 0.11 o 691 0.60 Yes Yes
2008GJ O C K 2019-03-03.32309 1.000E-05 13:04:58.090 1.500E-01 0.500 F 0.228 -0.052 -19° 48' 14.40" 1.000E-01 0.500 F -0.143 0.044 21.4 R 0.70 0.31 o 691 0.14 Yes Yes
2008GJ O C K 2019-03-03.33740 1.000E-05 13:04:57.010 1.500E-01 0.500 F 0.228 -0.151 -19° 48' 09.90" 1.000E-01 0.500 F -0.143 -0.205 20.7 R 0.70 -0.39 o 691 0.52 Yes Yes
2003FF5 O C K 2019-03-03.35766 1.000E-05 09:43:10.160 1.500E-01 0.500 F 0.084 0.577 -04° 45' 13.40" 1.000E-01 0.500 F 0.001 -0.118 22.7 R 0.70 1.51 o 691 1.20 Yes Yes
2003FF5 O C K 2019-03-03.38402 1.000E-05 09:43:06.760 1.500E-01 0.500 F 0.084 0.495 -04° 44' 43.20" 1.000E-01 0.500 F 0.001 0.232 22.1 R 0.70 0.91 o 691 1.11 Yes Yes
2016ED157 O C K 2019-03-03.42719 1.000E-05 12:51:26.610 1.500E-01 0.500 F 0.153 0.125 -05° 19' 35.70" 1.000E-01 0.500 F 0.228 0.414 21.9 R 0.70 0.41 o 691 0.88 Yes Yes
2016ED157 O C K 2019-03-03.43814 1.000E-05 12:51:27.950 1.500E-01 0.500 F 0.153 -0.402 -05° 19' 21.50" 1.000E-01 0.500 F 0.228 0.363 22.2 R 0.70 0.71 o 691 1.10 Yes Yes
2016ED157 O C K 2019-03-03.44911 1.000E-05 12:51:29.310 1.500E-01 0.500 F 0.153 -0.724 -05° 19' 07.80" 1.000E-01 0.500 F 0.228 -0.243 o 691 1.58 Yes No
2019CW5 O C 2019-03-03.46012 1.000E-05 12:51:13.420 1.500E-01 0.500 F 0.270 -0.117 -12° 25' 07.90" 1.000E-01 0.500 F 0.138 0.263 19.7 R 0.70 0.33 o 691 0.58 Yes Yes
2019CW5 O C 2019-03-03.46330 1.000E-05 12:51:14.060 1.500E-01 0.500 F 0.270 0.268 -12° 25' 06.30" 1.000E-01 0.500 F 0.138 0.078 18.9 R 0.70 -0.47 o 691 0.57 Yes Yes
2019CW5 O C 2019-03-03.46807 1.000E-05 12:51:14.930 1.500E-01 0.500 F 0.270 -0.482 -12° 25' 03.90" 1.000E-01 0.500 F 0.138 -0.205 19.4 R 0.70 0.03 o 691 1.06 Yes Yes
2017FK101 O C K 2019-03-03.47096 1.000E-05 11:03:07.760 1.500E-01 0.500 F 0.188 0.246 +10° 27' 30.00" 1.000E-01 0.500 F 0.196 -0.240 21.9 R 0.70 0.71 o 691 0.72 Yes Yes
2017FK101 O C K 2019-03-03.47889 1.000E-05 11:03:06.690 1.500E-01 0.500 F 0.188 -0.581 +10° 27' 23.40" 1.000E-01 0.500 F 0.196 0.334 21.4 R 0.70 0.21 o 691 1.40 Yes Yes
2017FK101 O C K 2019-03-03.48684 1.000E-05 11:03:05.730 1.500E-01 0.500 F 0.188 0.214 +10° 27' 15.40" 1.000E-01 0.500 F 0.196 -0.466 22.2 R 0.70 1.01 o 691 1.08 Yes Yes
2016JG18 O C K 2019-03-03.49896 1.000E-05 16:11:54.050 1.500E-01 0.500 F 0.170 -0.258 +09° 05' 13.40" 1.000E-01 0.500 F 0.158 0.496 21.9 R 0.70 0.43 o 691 1.12 Yes Yes
2016JG18 O C K 2019-03-03.51097 1.000E-05 16:11:55.430 1.500E-01 0.500 F 0.170 -0.078 +09° 05' 25.90" 1.000E-01 0.500 F 0.158 0.042 22.1 R 0.70 0.63 o 691 0.18 Yes Yes
2016JG18 O C K 2019-03-03.52298 1.000E-05 16:11:56.820 1.500E-01 0.500 F 0.170 0.255 +09° 05' 39.20" 1.000E-01 0.500 F 0.158 0.388 21.4 R 0.70 -0.07 o 691 0.93 Yes Yes
2019DS O C K 2019-03-04.11241 1.000E-05 10:12:55.890 1.500E-01 0.500 F 0.104 0.367 +14° 55' 08.90" 1.000E-01 0.500 F 0.178 -0.073 o 691 0.77 Yes No
2019DS O C K 2019-03-04.11885 1.000E-05 10:12:56.370 1.500E-01 0.500 F 0.104 0.208 +14° 55' 39.70" 1.000E-01 0.500 F 0.178 -0.011 20.8 R 0.70 0.34 o 691 0.43 Yes Yes
2019DS O C K 2019-03-04.12528 1.000E-05 10:12:56.800 1.500E-01 0.500 F 0.104 -0.565 +14° 56' 11.50" 1.000E-01 0.500 F 0.178 1.094 20.1 R 0.70 -0.36 o 691 2.52 Yes Yes
2019DJ1 O C K 2019-03-04.13514 1.000E-05 10:10:16.970 1.500E-01 0.500 F 0.164 -0.095 +26° 15' 58.60" 1.000E-01 0.500 F 0.207 -0.096 o 691 0.27 Yes No
2019DJ1 O C K 2019-03-04.13848 1.000E-05 10:10:14.260 1.500E-01 0.500 F 0.164 -0.435 +26° 16' 12.60" 1.000E-01 0.500 F 0.207 -0.217 19.0 R 0.70 -0.20 o 691 0.98 Yes Yes
2019CS1 O C K 2019-03-04.14330 1.000E-05 09:53:34.610 1.500E-01 0.500 F 0.076 -0.003 -01° 28' 50.50" 1.000E-01 0.500 F 0.171 -0.055 19.7 R 0.70 0.31 o 691 0.11 Yes Yes
2019CS1 O C K 2019-03-04.14668 1.000E-05 09:53:34.070 1.500E-01 0.500 F 0.076 -0.238 -01° 28' 48.00" 1.000E-01 0.500 F 0.171 0.001 19.5 R 0.70 0.11 o 691 0.48 Yes Yes
2019CS1 O C K 2019-03-04.15006 1.000E-05 09:53:33.560 1.500E-01 0.500 F 0.076 -0.013 -01° 28' 45.80" 1.000E-01 0.500 F 0.171 -0.244 19.7 R 0.70 0.31 o 691 0.50 Yes Yes
2019DH O C 2019-03-04.15401 1.000E-05 10:01:31.410 1.500E-01 0.500 F 0.150 -0.283 +02° 43' 35.00" 1.000E-01 0.500 F 0.143 0.102 18.7 R 0.70 -0.06 o 691 0.61 Yes Yes
2019DH O C 2019-03-04.15739 1.000E-05 10:01:32.290 1.500E-01 0.500 F 0.150 -0.478 +02° 43' 07.90" 1.000E-01 0.500 F 0.143 0.508 18.7 R 0.70 -0.06 o 691 1.43 Yes Yes
2019DH O C 2019-03-04.15964 1.000E-05 10:01:32.960 1.500E-01 0.500 F 0.150 0.673 +02° 42' 48.80" 1.000E-01 0.500 F 0.143 -0.269 18.8 R 0.70 0.04 o 691 1.48 Yes Yes
2019DP O C K 2019-03-04.16124 1.000E-05 09:35:05.940 1.500E-01 0.500 F 0.163 -0.040 -14° 42' 24.30" 1.000E-01 0.500 F -0.074 0.032 19.1 R 0.70 0.01 o 691 0.10 Yes Yes
2019DP O C K 2019-03-04.16386 1.000E-05 09:35:05.500 1.500E-01 0.500 F 0.163 0.347 -14° 42' 34.30" 1.000E-01 0.500 F -0.074 -0.405 20.1 R 0.70 1.01 o 691 1.07 Yes Yes
2018XY2 O C 2019-03-04.21575 1.000E-05 11:03:21.790 1.500E-01 0.500 F 0.142 -0.278 +00° 01' 49.50" 1.000E-01 0.500 F 0.165 0.143 19.3 V 0.70 0.06 o 691 0.63 Yes Yes
2019DZ O C K 2019-03-04.21575 1.000E-05 11:01:52.870 1.500E-01 0.500 F 0.121 -0.841 -00° 24' 24.70" 1.000E-01 0.500 F 0.134 0.599 20.4 R 0.70 0.26 o 691 2.10 Yes Yes
2018XY2 O C 2019-03-04.22043 1.000E-05 11:03:21.850 1.500E-01 0.500 F 0.142 -0.087 +00° 01' 41.20" 1.000E-01 0.500 F 0.165 0.122 19.6 V 0.70 0.36 o 691 0.30 Yes Yes
2019DZ O C K 2019-03-04.22512 1.000E-05 11:01:50.920 1.500E-01 0.500 F 0.121 -1.101 -00° 25' 22.30" 1.000E-01 0.500 F 0.134 -0.247 o 691 2.31 Yes No
2018XY2 O C 2019-03-04.22512 1.000E-05 11:03:21.860 1.500E-01 0.500 F 0.142 -0.623 +00° 01' 33.20" 1.000E-01 0.500 F 0.165 0.417 19.6 V 0.70 0.36 o 691 1.52 Yes Yes
2019CC5 O C K 2019-03-04.23146 1.000E-05 11:49:03.070 1.500E-01 0.500 F 0.179 0.177 +21° 02' 59.00" 1.000E-01 0.500 F 0.271 0.256 21.0 R 0.70 0.72 o 691 0.64 Yes Yes
2019CC5 O C K 2019-03-04.23692 1.000E-05 11:49:02.080 1.500E-01 0.500 F 0.179 0.044 +21° 03' 03.00" 1.000E-01 0.500 F 0.271 0.164 20.8 R 0.70 0.52 o 691 0.35 Yes Yes
2019CC5 O C K 2019-03-04.24238 1.000E-05 11:49:01.070 1.500E-01 0.500 F 0.179 -0.352 +21° 03' 07.00" 1.000E-01 0.500 F 0.271 0.083 20.6 R 0.70 0.32 o 691 0.74 Yes Yes
2019CC3 O C K 2019-03-04.25299 1.000E-05 11:08:58.730 1.500E-01 0.500 F 0.176 -0.282 -08° 58' 50.80" 1.000E-01 0.500 F -0.155 -0.291 20.5 R 0.70 0.31 o 691 0.85 Yes Yes
2019CC3 O C K 2019-03-04.26029 1.000E-05 11:09:01.600 1.500E-01 0.500 F 0.176 -0.103 -08° 59' 28.70" 1.000E-01 0.500 F -0.155 0.028 20.8 R 0.70 0.61 o 691 0.23 Yes Yes
2019CC3 O C K 2019-03-04.26759 1.000E-05 11:09:04.440 1.500E-01 0.500 F 0.176 -0.260 -09° 00' 07.00" 1.000E-01 0.500 F -0.155 -0.098 o 691 0.58 Yes No
2019CZ2 O C 2019-03-04.28437 1.000E-05 11:00:46.250 1.500E-01 0.500 F 0.197 -0.267 +01° 03' 26.40" 1.000E-01 0.500 F 0.177 0.338 21.1 V 0.70 0.51 o 691 0.88 Yes Yes
2010RT11 O C 2019-03-04.28437 1.000E-05 10:57:02.720 1.500E-01 0.500 F 0.246 -0.517 +01° 18' 07.10" 1.000E-01 0.500 F 0.242 0.016 19.4 V 0.70 0.02 o 691 1.04 Yes Yes
2019CZ2 O C 2019-03-04.29123 1.000E-05 11:00:46.080 1.500E-01 0.500 F 0.197 -0.290 +01° 03' 32.20" 1.000E-01 0.500 F 0.177 0.242 21.4 V 0.70 0.81 o 691 0.78 Yes Yes
2010RT11 O C 2019-03-04.29123 1.000E-05 10:57:02.280 1.500E-01 0.500 F 0.246 -0.226 +01° 18' 09.80" 1.000E-01 0.500 F 0.242 0.118 19.5 V 0.70 0.12 o 691 0.51 Yes Yes
2019CZ2 O C 2019-03-04.29808 1.000E-05 11:00:45.910 1.500E-01 0.500 F 0.197 -0.297 +01° 03' 37.80" 1.000E-01 0.500 F 0.177 -0.042 21.0 V 0.70 0.41 o 691 0.62 Yes Yes
2010RT11 O C 2019-03-04.29808 1.000E-05 10:57:01.810 1.500E-01 0.500 F 0.246 -0.390 +01° 18' 12.30" 1.000E-01 0.500 F 0.242 0.024 19.5 V 0.70 0.13 o 691 0.79 Yes Yes
1998RN1 O C K 2019-03-04.30528 1.000E-05 12:19:13.110 1.500E-01 0.500 F 0.224 -0.170 -14° 28' 53.60" 1.000E-01 0.500 F -0.028 0.564 21.7 R 0.70 0.47 o 691 1.19 Yes Yes
1998RN1 O C K 2019-03-04.31450 1.000E-05 12:19:12.400 1.500E-01 0.500 F 0.224 0.434 -14° 29' 01.00" 1.000E-01 0.500 F -0.028 -0.058 22.0 R 0.70 0.77 o 691 0.88 Yes Yes
1998RN1 O C K 2019-03-04.32373 1.000E-05 12:19:11.620 1.500E-01 0.500 F 0.224 0.046 -14° 29' 06.90" 1.000E-01 0.500 F -0.028 0.822 21.8 R 0.70 0.57 o 691 1.65 Yes Yes
2019CD5 O C H 2019-03-04.41629 1.000E-05 11:41:08.700 1.500E-01 0.500 F 0.049 0.142 +17° 23' 58.30" 1.000E-01 0.500 F 0.365 0.084 18.8 R 0.70 0.14 o 691 0.33 Yes Yes
2019CD5 O C H 2019-03-04.41793 1.000E-05 11:41:08.820 1.500E-01 0.500 F 0.049 -0.035 +17° 24' 00.30" 1.000E-01 0.500 F 0.365 -0.723 18.8 R 0.70 0.14 o 691 1.45 Yes Yes
2019CD5 O C H 2019-03-04.41956 1.000E-05 11:41:08.960 1.500E-01 0.500 F 0.049 0.083 +17° 24' 03.70" 1.000E-01 0.500 F 0.365 -0.111 19.4 R 0.70 0.74 o 691 0.28 Yes Yes
2019CZ4 O C K 2019-03-05.10723 1.000E-05 09:04:10.940 1.500E-01 0.500 F 0.048 -0.041 +20° 27' 55.40" 1.000E-01 0.500 F 0.215 -0.016 20.0 R 0.70 0.75 o 691 0.09 Yes Yes
2019CZ4 O C K 2019-03-05.11079 1.000E-05 09:04:09.670 1.500E-01 0.500 F 0.048 0.590 +20° 27' 45.20" 1.000E-01 0.500 F 0.215 -0.297 19.7 R 0.70 0.45 o 691 1.34 Yes Yes
2019CZ4 O C K 2019-03-05.11434 1.000E-05 09:04:08.310 1.500E-01 0.500 F 0.048 -0.079 +20° 27' 35.70" 1.000E-01 0.500 F 0.215 0.101 19.4 R 0.70 0.15 o 691 0.26 Yes Yes
2019DR O C K 2019-03-05.16067 1.000E-05 10:05:09.720 1.500E-01 0.500 F 0.198 -0.440 +05° 23' 42.40" 1.000E-01 0.500 F 0.222 -0.003 o 691 0.91 Yes No
2019DR O C K 2019-03-05.17134 1.000E-05 10:05:11.910 1.500E-01 0.500 F 0.198 -0.253 +05° 23' 14.70" 1.000E-01 0.500 F 0.222 0.080 20.9 R 0.70 0.18 o 691 0.55 Yes Yes
2019DR O C K 2019-03-05.18201 1.000E-05 10:05:14.060 1.500E-01 0.500 F 0.198 -0.388 +05° 22' 46.90" 1.000E-01 0.500 F 0.222 0.066 o 691 0.81 Yes No
1994VA1 O C 2019-03-05.19409 1.000E-05 09:35:08.580 1.500E-01 0.500 F 0.194 0.007 -14° 51' 35.10" 1.000E-01 0.500 F -0.101 -0.129 19.0 V 0.70 0.46 o 691 0.26 Yes Yes
2019DP O C K 2019-03-05.19409 1.000E-05 09:33:16.780 1.500E-01 0.500 F 0.194 -0.377 -15° 35' 34.60" 1.000E-01 0.500 F -0.101 0.380 19.1 R 0.70 -0.28 o 691 1.07 Yes Yes
2019DP O C K 2019-03-05.19767 1.000E-05 09:33:16.250 1.500E-01 0.500 F 0.194 -0.157 -15° 35' 44.90" 1.000E-01 0.500 F -0.101 0.169 19.2 R 0.70 -0.18 o 691 0.46 Yes Yes
1994VA1 O C 2019-03-05.19888 1.000E-05 09:35:08.360 1.500E-01 0.500 F 0.194 -0.302 -14° 51' 31.90" 1.000E-01 0.500 F -0.101 0.030 18.8 V 0.70 0.26 o 691 0.61 Yes Yes
2019DP O C K 2019-03-05.20126 1.000E-05 09:33:15.730 1.500E-01 0.500 F 0.194 0.251 -15° 35' 55.10" 1.000E-01 0.500 F -0.101 0.058 19.3 R 0.70 -0.08 o 691 0.52 Yes Yes
1994VA1 O C 2019-03-05.20365 1.000E-05 09:35:08.170 1.500E-01 0.500 F 0.194 -0.182 -14° 51' 28.70" 1.000E-01 0.500 F -0.101 0.195 19.0 V 0.70 0.46 o 691 0.53 Yes Yes
2008GF O C K 2019-03-05.25816 1.000E-05 11:04:21.970 1.500E-01 0.500 F 0.086 0.210 -16° 26' 18.00" 1.000E-01 0.500 F 0.033 -0.106 21.3 R 0.70 0.17 o 691 0.54 Yes Yes
2008GF O C K 2019-03-05.26636 1.000E-05 11:04:21.280 1.500E-01 0.500 F 0.086 0.253 -16° 26' 05.30" 1.000E-01 0.500 F 0.033 -0.050 21.0 R 0.70 -0.13 o 691 0.60 Yes Yes
2008GF O C K 2019-03-05.27457 1.000E-05 11:04:20.560 1.500E-01 0.500 F 0.086 -0.110 -16° 25' 52.00" 1.000E-01 0.500 F 0.033 0.578 21.2 R 0.70 0.07 o 691 1.22 Yes Yes
2007ES O C K 2019-03-05.28561 1.000E-05 10:14:40.470 1.500E-01 0.500 F 0.234 -0.293 +06° 48' 01.50" 1.000E-01 0.500 F 0.127 -0.050 22.0 R 0.70 0.60 o 691 0.60 Yes Yes
2007ES O C K 2019-03-05.29729 1.000E-05 10:14:39.120 1.500E-01 0.500 F 0.234 0.026 +06° 48' 02.10" 1.000E-01 0.500 F 0.127 0.168 22.1 R 0.70 0.70 o 691 0.34 Yes Yes
2007ES O C K 2019-03-05.30898 1.000E-05 10:14:37.750 1.500E-01 0.500 F 0.234 0.059 +06° 48' 02.30" 1.000E-01 0.500 F 0.127 -0.010 22.1 R 0.70 0.70 o 691 0.12 Yes Yes
2001SW169 O C 2019-03-05.32195 1.000E-05 11:04:36.870 1.500E-01 0.500 F 0.068 0.001 +12° 55' 23.20" 1.000E-01 0.500 F 0.218 0.001 18.0 V 0.70 0.46 o 691 0.00 Yes Yes
2019CR1 O C K 2019-03-05.32195 1.000E-05 11:04:20.640 1.500E-01 0.500 F 0.068 -0.243 +12° 59' 33.00" 1.000E-01 0.500 F 0.218 0.266 21.4 R 0.70 0.01 o 691 0.77 Yes Yes
2019CR1 O C K 2019-03-05.32890 1.000E-05 11:04:19.980 1.500E-01 0.500 F 0.068 -0.208 +12° 59' 36.30" 1.000E-01 0.500 F 0.218 0.211 20.8 R 0.70 -0.59 o 691 0.63 Yes Yes
2001SW169 O C 2019-03-05.33239 1.000E-05 11:04:35.480 1.500E-01 0.500 F 0.068 0.103 +12° 55' 25.00" 1.000E-01 0.500 F 0.218 0.029 17.9 V 0.70 0.36 o 691 0.22 Yes Yes
2019CR1 O C K 2019-03-05.33586 1.000E-05 11:04:19.360 1.500E-01 0.500 F 0.068 0.420 +12° 59' 39.70" 1.000E-01 0.500 F 0.218 0.266 21.7 R 0.70 0.31 o 691 1.08 Yes Yes
2001SW169 O C 2019-03-05.34108 1.000E-05 11:04:34.320 1.500E-01 0.500 F 0.068 0.139 +12° 55' 26.40" 1.000E-01 0.500 F 0.218 -0.026 18.3 V 0.70 0.76 o 691 0.29 Yes Yes
2002KL6 O C 2019-03-05.34420 1.000E-05 11:03:36.290 1.500E-01 0.500 F 0.113 -0.540 +02° 06' 18.50" 1.000E-01 0.500 F 0.139 -0.490 21.4 V 0.70 -0.09 o 691 1.46 Yes Yes
2019CZ2 O C 2019-03-05.34420 1.000E-05 11:00:46.390 1.500E-01 0.500 F 0.197 0.281 +01° 18' 10.10" 1.000E-01 0.500 F 0.177 0.030 21.2 R 0.70 0.95 o 691 0.59 Yes Yes
2002KL6 O C 2019-03-05.35254 1.000E-05 11:03:35.770 1.500E-01 0.500 F 0.113 -0.189 +02° 06' 22.60" 1.000E-01 0.500 F 0.139 0.144 20.9 V 0.70 -0.59 o 691 0.48 Yes Yes
2019CZ2 O C 2019-03-05.35254 1.000E-05 11:00:46.160 1.500E-01 0.500 F 0.197 -0.194 +01° 18' 16.70" 1.000E-01 0.500 F 0.177 -0.111 20.9 R 0.70 0.65 o 691 0.46 Yes Yes
2002KL6 O C 2019-03-05.35810 1.000E-05 11:03:35.400 1.500E-01 0.500 F 0.113 -0.306 +02° 06' 25.00" 1.000E-01 0.500 F 0.139 0.233 21.5 V 0.70 0.01 o 691 0.77 Yes Yes
2019CZ2 O C 2019-03-05.35810 1.000E-05 11:00:46.070 1.500E-01 0.500 F 0.197 0.418 +01° 18' 21.30" 1.000E-01 0.500 F 0.177 -0.001 20.7 R 0.70 0.45 o 691 0.87 Yes Yes
2019DJ1 O C K 2019-03-05.36174 1.000E-05 09:53:15.290 1.500E-01 0.500 F 0.135 -0.959 +27° 31' 43.90" 1.000E-01 0.500 F 0.321 0.081 18.7 R 0.70 -0.38 o 691 1.94 Yes Yes
2019DJ1 O C K 2019-03-05.36554 1.000E-05 09:53:11.330 1.500E-01 0.500 F 0.135 0.071 +27° 31' 56.20" 1.000E-01 0.500 F 0.321 0.001 19.7 R 0.70 0.62 o 691 0.14 Yes Yes
2019DJ1 O C K 2019-03-05.36934 1.000E-05 09:53:07.340 1.500E-01 0.500 F 0.135 0.618 +27° 32' 08.30" 1.000E-01 0.500 F 0.321 -0.196 19.4 R 0.70 0.32 o 691 1.31 Yes Yes
2019EF O C K 2019-03-05.37150 1.000E-05 11:34:19.260 1.500E-01 0.500 F 0.130 0.454 +17° 13' 22.10" 1.000E-01 0.500 F 0.337 0.364 20.4 R 0.70 -0.51 o 691 1.16 Yes Yes
2019EF O C K 2019-03-05.37671 1.000E-05 11:34:16.960 1.500E-01 0.500 F 0.130 -0.013 +17° 13' 34.50" 1.000E-01 0.500 F 0.337 -0.464 21.5 R 0.70 0.59 o 691 0.95 Yes Yes
2019EF O C K 2019-03-05.38194 1.000E-05 11:34:14.730 1.500E-01 0.500 F 0.130 0.556 +17° 13' 48.40" 1.000E-01 0.500 F 0.337 0.225 21.5 R 0.70 0.59 o 691 1.21 Yes Yes
2019CM4 O C K 2019-03-05.38869 1.000E-05 13:14:44.360 1.500E-01 0.500 F 0.327 0.188 +12° 25' 50.80" 1.000E-01 0.500 F 0.243 0.097 17.5 R 0.70 -0.31 o 691 0.42 Yes Yes
2019CM4 O C K 2019-03-05.39254 1.000E-05 13:14:47.970 1.500E-01 0.500 F 0.327 0.140 +12° 25' 25.50" 1.000E-01 0.500 F 0.243 0.167 17.6 R 0.70 -0.21 o 691 0.44 Yes Yes
2019CM4 O C K 2019-03-05.39640 1.000E-05 13:14:51.600 1.500E-01 0.500 F 0.327 0.220 +12° 25' 00.10" 1.000E-01 0.500 F 0.243 0.241 17.5 R 0.70 -0.31 o 691 0.66 Yes Yes
2019CX2 O C K 2019-03-05.40019 1.000E-05 12:36:30.580 1.500E-01 0.500 F 0.439 0.269 -28° 55' 23.80" 1.000E-01 0.500 F 0.130 -0.067 21.1 R 0.70 0.34 o 691 0.59 Yes Yes
2019CX2 O C K 2019-03-05.40957 1.000E-05 12:36:29.180 1.500E-01 0.500 F 0.439 -0.064 -28° 55' 20.40" 1.000E-01 0.500 F 0.130 -0.342 20.9 R 0.70 0.14 o 691 0.74 Yes Yes
2019CN4 O C K 2019-03-05.42361 1.000E-05 12:58:06.020 1.500E-01 0.500 F 0.262 -0.300 +13° 36' 26.60" 1.000E-01 0.500 F 0.379 0.003 19.8 R 0.70 -0.25 o 691 0.58 Yes Yes
2019CN4 O C K 2019-03-05.42683 1.000E-05 12:58:06.030 1.500E-01 0.500 F 0.262 -0.258 +13° 36' 22.40" 1.000E-01 0.500 F 0.379 0.145 19.8 R 0.70 -0.25 o 691 0.58 Yes Yes
2019CN4 O C K 2019-03-05.43166 1.000E-05 12:58:06.060 1.500E-01 0.500 F 0.262 0.022 +13° 36' 15.90" 1.000E-01 0.500 F 0.379 0.164 20.0 R 0.70 -0.05 o 691 0.35 Yes Yes
1998FF14 O C K 2019-03-05.43518 1.000E-05 12:18:44.570 1.500E-01 0.500 F 0.215 -0.111 +31° 57' 49.90" 1.000E-01 0.500 F 0.230 0.466 21.1 R 0.70 0.42 o 691 0.96 Yes Yes
1998FF14 O C K 2019-03-05.44277 1.000E-05 12:18:42.510 1.500E-01 0.500 F 0.215 0.199 +31° 57' 45.70" 1.000E-01 0.500 F 0.230 0.150 20.5 R 0.70 -0.18 o 691 0.50 Yes Yes
1998FF14 O C K 2019-03-05.45036 1.000E-05 12:18:40.390 1.500E-01 0.500 F 0.215 -0.263 +31° 57' 41.70" 1.000E-01 0.500 F 0.230 0.053 20.8 R 0.70 0.12 o 691 0.54 Yes Yes
2000CO101 O C 2019-03-05.46160 1.000E-05 15:40:14.850 1.500E-01 0.500 F 0.277 -0.057 -26° 43' 53.30" 1.000E-01 0.500 F 0.486 -0.288 18.9 R 0.70 0.29 o 691 0.59 Yes Yes
2000CO101 O C 2019-03-05.46430 1.000E-05 15:40:15.040 1.500E-01 0.500 F 0.277 0.177 -26° 44' 01.70" 1.000E-01 0.500 F 0.486 -0.005 18.8 R 0.70 0.19 o 691 0.35 Yes Yes
2000CO101 O C 2019-03-05.46833 1.000E-05 15:40:15.270 1.500E-01 0.500 F 0.277 -0.188 -26° 44' 14.60" 1.000E-01 0.500 F 0.486 0.052 19.1 R 0.70 0.49 o 691 0.39 Yes Yes
2014XX31 O C K 2019-03-06.11195 1.000E-05 06:56:57.400 1.500E-01 0.500 F -0.061 -0.401 +01° 08' 17.40" 1.000E-01 0.500 F 0.094 1.853 20.1 R 0.70 -0.13 o 691 3.55 No Yes
2014XX31 O C K 2019-03-06.11703 1.000E-05 06:56:56.930 1.500E-01 0.500 F -0.061 -0.137 +01° 08' 16.10" 1.000E-01 0.500 F 0.094 0.085 20.1 R 0.70 -0.13 o 691 0.35 Yes Yes
2019CD2 O C H 2019-03-06.33282 1.000E-05 10:29:04.610 1.500E-01 0.500 F 0.108 -0.197 -07° 13' 12.30" 1.000E-01 0.500 F 0.178 0.359 18.7 R 0.70 -0.31 o 691 0.83 Yes Yes
2019CZ2 O C H 2019-03-06.33442 1.000E-05 11:00:48.080 1.500E-01 0.500 F 0.197 -0.154 +01° 31' 10.80" 1.000E-01 0.500 F 0.177 -0.233 21.2 R 0.70 0.89 o 691 0.57 Yes Yes
2018QT O C K 2019-03-06.33608 1.000E-05 11:33:35.360 1.500E-01 0.500 F 0.184 -0.397 +03° 12' 10.60" 1.000E-01 0.500 F 0.298 0.057 21.7 R 0.70 0.11 o 691 0.81 Yes Yes
2019CD2 O C H 2019-03-06.34326 1.000E-05 10:29:03.410 1.500E-01 0.500 F 0.108 0.258 -07° 12' 59.00" 1.000E-01 0.500 F 0.178 -0.803 18.3 R 0.70 -0.71 o 691 1.71 Yes Yes
2019CD2 O C H 2019-03-06.35370 1.000E-05 10:29:02.150 1.500E-01 0.500 F 0.108 -0.221 -07° 12' 43.90" 1.000E-01 0.500 F 0.178 -0.167 18.9 R 0.70 -0.11 o 691 0.56 Yes Yes
2019CZ2 O C H 2019-03-06.35530 1.000E-05 11:00:47.580 1.500E-01 0.500 F 0.197 -0.474 +01° 31' 27.10" 1.000E-01 0.500 F 0.177 0.090 20.9 R 0.70 0.59 o 691 1.01 Yes Yes
2018QT O C K 2019-03-06.35696 1.000E-05 11:33:33.140 1.500E-01 0.500 F 0.184 -0.272 +03° 12' 23.20" 1.000E-01 0.500 F 0.298 0.539 22.2 R 0.70 0.61 o 691 1.21 Yes Yes
2014EQ49 O C K 2019-03-06.44990 1.000E-05 13:42:34.050 1.500E-01 0.500 F 0.195 0.680 +22° 52' 34.80" 1.000E-01 0.500 F 0.274 0.369 20.6 R 0.70 0.71 o 691 1.57 Yes Yes
2014EQ49 O C K 2019-03-06.46421 1.000E-05 13:42:29.910 1.500E-01 0.500 F 0.195 -0.535 +22° 52' 11.00" 1.000E-01 0.500 F 0.274 0.454 19.7 R 0.70 -0.19 o 691 1.42 Yes Yes
2006OT9 O C K 2019-03-09.11322 1.000E-05 03:42:22.170 1.500E-01 0.500 F -0.253 0.268 -05° 53' 16.10" 1.000E-01 0.500 F 0.257 -0.073 20.1 R 0.70 0.15 o 691 0.57 Yes Yes
2006OT9 O C K 2019-03-09.11805 1.000E-05 03:42:23.270 1.500E-01 0.500 F -0.253 -0.023 -05° 53' 33.50" 1.000E-01 0.500 F 0.257 0.111 20.0 R 0.70 0.05 o 691 0.25 Yes Yes
2006OT9 O C K 2019-03-09.12288 1.000E-05 03:42:24.360 1.500E-01 0.500 F -0.253 -0.481 -05° 53' 51.20" 1.000E-01 0.500 F 0.257 -0.008 20.4 R 0.70 0.45 o 691 0.98 Yes Yes
2013BE19 O C K 2019-03-09.12914 1.000E-05 04:04:59.630 1.500E-01 0.500 F -0.317 -0.074 +16° 23' 41.30" 1.000E-01 0.500 F 0.156 -0.041 o 691 0.17 Yes No

[1-200] [201-400] [401-600] [601-800] [801-1000] [1001-1200] [1201-1400] [1401-1600] [1601-1800] [1801-2000] [2001-2200] [2201-2400] [2401-2600] [2601-2800] [2801-3000] [3001-3200] [3201-3400] [3401-3600] [3601-3800] [3801-4000] [4001-4200] [4201-4400] [4401-4600] [4601-4800] [4801-5000] [5001-5200] [5201-5400] [5401-5600] [5601-5800] [5801-6000] [6001-6200] [6201-6400] [6401-6600] [6601-6800] [6801-7000] [7001-7200] [7201-7400] [7401-7600] [7601-7800] [7801-8000] [8001-8200] [8201-8400] [8401-8600] [8601-8800] [8801-9000] [9001-9200] [9201-9400] [9401-9600] [9601-9800] [9801-10000] [10001-10200] [10201-10400] [10401-10600] [10601-10800] [10801-11000] [11001-11200] [11201-11400] [11401-11600] [11601-11800] [11801-12000] [12001-12200] [12201-12400] [12401-12600] [12601-12800] [12801-13000] [13001-13200] [13201-13400] [13401-13600] [13601-13800] [13801-14000] [14001-14200] [14201-14400] [14401-14600] [14601-14800] [14801-15000] [15001-15200] [15201-15400] [15401-15600] [15601-15800] [15801-16000] [16001-16200] [16201-16400] [16401-16600] [16601-16800] [16801-17000] [17001-17200] [17201-17400] [17401-17600] [17601-17800] [17801-18000] [18001-18200] [18201-18400] [18401-18600] [18601-18800] [18801-19000] [19001-19200] [19201-19400] [19401-19600] [19601-19800] [19801-20000] [20001-20200] [20201-20400] [20401-20600] [20601-20800] [20801-21000] [21001-21200] [21201-21400] [21401-21600] [21601-21800] [21801-22000] [22001-22200] [22201-22400] [22401-22600] [22601-22800] [22801-23000] [23001-23200] [23201-23400] [23401-23600] [23601-23800] [23801-24000] [24001-24200] [24201-24400] [24401-24600] [24601-24800] [24801-25000] [25001-25200] [25201-25400] [25401-25600] [25601-25800] [25801-26000] [26001-26200] [26201-26400] [26401-26600] [26601-26800] [26801-27000] [27001-27200] [27201-27400] [27401-27600] [27601-27800] [27801-28000] [28001-28200] [28201-28400] [28401-28600] [28601-28800] [28801-29000] [29001-29200] [29201-29400] [29401-29600] [29601-29800] [29801-30000] [30001-30200] [30201-30400] [30401-30600] [30601-30800] [30801-31000] [31001-31200] [31201-31400] [31401-31600] [31601-31800] [31801-32000] [32001-32200] [32201-32400] [32401-32600] [32601-32800] [32801-33000] [33001-33200] [33201-33400] [33401-33600] [33601-33800] [33801-34000] [34001-34200] [34201-34400] [34401-34600] [34601-34800] [34801-35000] [35001-35200] [35201-35400] [35401-35600] [35601-35800] [35801-36000] [36001-36200] [36201-36400] [36401-36600] [36601-36800] [36801-37000] [37001-37200] [37201-37400] [37401-37600] [37601-37800] [37801-38000] [38001-38200] [38201-38400] [38401-38600] [38601-38800] [38801-39000] [39001-39200] [39201-39400] [39401-39600] [39601-39800] [39801-40000] [40001-40200] [40201-40400] [40401-40600] [40601-40800] [40801-41000] [41001-41200] [41201-41400] [41401-41600] [41601-41800] [41801-42000] [42001-42200] [42201-42400] [42401-42600] [42601-42800] [42801-43000] [43001-43200] [43201-43400] [43401-43600] [43601-43800] [43801-44000] [44001-44200] [44201-44400] [44401-44600] [44601-44800] [44801-45000] [45001-45200] [45201-45400] [45401-45600] [45601-45800] [45801-46000] [46001-46200] [46201-46400] [46401-46600] [46601-46800] [46801-47000] [47001-47200] [47201-47400] [47401-47600] [47601-47800] [47801-48000] [48001-48200] [48201-48400] [48401-48600] [48601-48800] [48801-49000] [49001-49200] [49201-49400] [49401-49600] [49601-49800] [49801-50000] [50001-50200] [50201-50388]